Time;durP1;ratioP1;P1;durP2;ratioP2;P2;SDS_P1;SDS_P2;PMS_P1;PMS_P2;Temp;Humidity;BMP_temperature;BMP_pressure;BME280_temperature;BME280_humidity;BME280_pressure;Samples;Min_cycle;Max_cycle;Signal;HPM_P1;HPM_P2
2021/09/06 00:02:46;;;;;;;12.37;7.47;;;;;;;;;;5015719;28;20217;-75
2021/09/06 00:05:50;;;;;;;9.53;7.40;;;;;;;;;;5023908;28;20181;-75
2021/09/06 00:08:54;;;;;;;10.00;7.93;;;;;;;;;;5001414;28;20185;-75
2021/09/06 00:11:59;;;;;;;10.23;7.33;;;;;;;;;;5035325;28;20687;-75
2021/09/06 00:15:03;;;;;;;10.20;7.80;;;;;;;;;;5049132;28;20192;-76
2021/09/06 00:18:08;;;;;;;8.67;7.30;;;;;;;;;;5034851;28;20213;-75
2021/09/06 00:21:13;;;;;;;9.10;8.13;;;;;;;;;;5036288;28;20232;-75
2021/09/06 00:24:17;;;;;;;9.07;7.10;;;;;;;;;;5043475;28;20532;-75
2021/09/06 00:27:21;;;;;;;12.20;7.20;;;;;;;;;;5041815;28;20196;-76
2021/09/06 00:30:29;;;;;;;9.40;8.23;;;;;;;;;;5036487;28;20200;-75
2021/09/06 00:33:33;;;;;;;14.53;7.87;;;;;;;;;;5029043;28;20185;-75
2021/09/06 00:36:37;;;;;;;11.13;7.73;;;;;;;;;;5035416;28;20200;-76
2021/09/06 00:39:43;;;;;;;10.37;7.67;;;;;;;;;;5021833;28;20185;-75
2021/09/06 00:42:47;;;;;;;9.47;7.83;;;;;;;;;;5022441;28;20694;-75
2021/09/06 00:45:51;;;;;;;9.13;7.90;;;;;;;;;;5031580;28;20201;-75
2021/09/06 00:48:55;;;;;;;12.87;8.00;;;;;;;;;;5026349;28;20203;-75
2021/09/06 00:51:59;;;;;;;11.63;8.50;;;;;;;;;;5051857;28;20220;-75
2021/09/06 00:55:05;;;;;;;10.27;7.93;;;;;;;;;;5019372;28;20188;-75
2021/09/06 00:58:11;;;;;;;11.20;8.57;;;;;;;;;;5015480;28;20208;-75
2021/09/06 01:01:16;;;;;;;10.40;7.97;;;;;;;;;;5031063;28;20224;-75
2021/09/06 01:04:22;;;;;;;11.63;8.60;;;;;;;;;;5037071;28;20184;-75
2021/09/06 01:07:56;;;;;;;11.60;8.23;;;;;;;;;;4988951;28;20216;-76
2021/09/06 01:11:36;;;;;;;12.33;8.27;;;;;;;;;;4975340;28;20226;-76
2021/09/06 01:15:05;;;;;;;12.20;8.77;;;;;;;;;;5021105;28;20516;-75
2021/09/06 01:18:15;;;;;;;12.90;8.67;;;;;;;;;;5001265;28;20213;-75
2021/09/06 01:21:20;;;;;;;14.23;9.67;;;;;;;;;;5004734;28;20220;-76
2021/09/06 01:24:42;;;;;;;12.70;8.33;;;;;;;;;;5035334;28;20184;-75
2021/09/06 01:27:53;;;;;;;11.20;8.67;;;;;;;;;;5017336;28;20176;-75
2021/09/06 01:31:03;;;;;;;13.17;8.40;;;;;;;;;;5039589;28;20579;-75
2021/09/06 01:34:11;;;;;;;11.17;9.40;;;;;;;;;;5021810;28;20200;-75
2021/09/06 01:37:17;;;;;;;13.57;8.80;;;;;;;;;;5021720;28;20220;-75
2021/09/06 01:40:28;;;;;;;10.67;8.90;;;;;;;;;;5034482;28;20200;-75
2021/09/06 01:43:32;;;;;;;11.53;8.57;;;;;;;;;;5034196;28;20196;-75
2021/09/06 01:46:37;;;;;;;12.97;8.87;;;;;;;;;;5020479;28;20204;-75
2021/09/06 01:49:42;;;;;;;11.47;9.17;;;;;;;;;;5026768;28;20204;-75
2021/09/06 01:52:47;;;;;;;11.93;9.30;;;;;;;;;;5022350;28;20216;-75
2021/09/06 01:55:51;;;;;;;12.70;9.23;;;;;;;;;;5024180;28;20539;-75
2021/09/06 01:58:56;;;;;;;12.23;9.43;;;;;;;;;;5041153;28;20196;-76
2021/09/06 02:02:00;;;;;;;11.93;10.27;;;;;;;;;;5021118;28;20224;-75
2021/09/06 02:05:11;;;;;;;13.47;9.77;;;;;;;;;;5011173;28;20196;-76
2021/09/06 02:08:18;;;;;;;11.87;9.27;;;;;;;;;;5024129;28;20204;-75
2021/09/06 02:11:23;;;;;;;13.37;10.00;;;;;;;;;;5037718;28;20560;-75
2021/09/06 02:14:28;;;;;;;11.63;9.50;;;;;;;;;;5023432;28;20207;-75
2021/09/06 02:17:32;;;;;;;14.73;9.37;;;;;;;;;;5037449;28;20204;-75
2021/09/06 02:20:36;;;;;;;11.70;10.07;;;;;;;;;;5039944;28;20199;-75
2021/09/06 02:23:43;;;;;;;12.80;9.33;;;;;;;;;;5028173;28;20191;-75
2021/09/06 02:26:47;;;;;;;13.60;9.93;;;;;;;;;;5017182;28;20208;-75
2021/09/06 02:29:51;;;;;;;11.87;8.90;;;;;;;;;;5036951;28;20212;-75
2021/09/06 02:33:00;;;;;;;18.13;10.10;;;;;;;;;;5034258;28;20643;-75
2021/09/06 02:36:24;;;;;;;13.63;10.43;;;;;;;;;;5041801;28;20200;-75
2021/09/06 02:39:28;;;;;;;13.20;10.63;;;;;;;;;;5014843;28;20183;-75
2021/09/06 02:42:32;;;;;;;17.10;10.43;;;;;;;;;;5024760;28;20586;-75
2021/09/06 02:45:37;;;;;;;12.13;10.53;;;;;;;;;;5032712;28;20188;-75
2021/09/06 02:48:45;;;;;;;13.67;10.43;;;;;;;;;;5025044;28;20182;-75
2021/09/06 02:51:51;;;;;;;15.23;11.00;;;;;;;;;;5035751;28;20227;-75
2021/09/06 02:54:55;;;;;;;15.03;11.13;;;;;;;;;;5021199;28;20216;-75
2021/09/06 02:57:59;;;;;;;11.80;10.00;;;;;;;;;;5004657;28;20216;-76
2021/09/06 03:01:04;;;;;;;12.63;10.43;;;;;;;;;;5023661;28;20223;-75
2021/09/06 03:04:08;;;;;;;13.27;11.03;;;;;;;;;;5017819;28;20207;-75
2021/09/06 03:07:12;;;;;;;13.40;10.50;;;;;;;;;;5007255;28;20220;-76
2021/09/06 03:10:16;;;;;;;15.20;11.00;;;;;;;;;;4993394;28;20224;-75
2021/09/06 03:13:21;;;;;;;15.33;10.83;;;;;;;;;;5016151;28;20189;-75
2021/09/06 03:16:25;;;;;;;14.10;10.40;;;;;;;;;;5047009;28;20191;-75
2021/09/06 03:19:32;;;;;;;14.30;10.53;;;;;;;;;;5042982;28;20208;-75
2021/09/06 03:22:37;;;;;;;13.57;10.63;;;;;;;;;;5038169;28;20231;-75
2021/09/06 03:25:41;;;;;;;14.50;10.40;;;;;;;;;;5035309;28;20603;-75
2021/09/06 03:28:46;;;;;;;15.67;10.83;;;;;;;;;;5043759;28;20180;-76
2021/09/06 03:31:52;;;;;;;12.23;10.23;;;;;;;;;;5031926;28;20227;-76
2021/09/06 03:34:57;;;;;;;12.83;10.27;;;;;;;;;;5031796;28;20196;-75
2021/09/06 03:38:01;;;;;;;13.10;10.30;;;;;;;;;;5010235;28;20215;-75
2021/09/06 03:41:07;;;;;;;11.37;9.57;;;;;;;;;;5022966;28;20227;-76
2021/09/06 03:44:14;;;;;;;14.23;10.67;;;;;;;;;;5025405;28;20197;-75
2021/09/06 03:47:21;;;;;;;13.93;11.20;;;;;;;;;;5043670;28;20654;-76
2021/09/06 03:50:25;;;;;;;13.20;10.63;;;;;;;;;;5039841;28;20203;-75
2021/09/06 03:53:29;;;;;;;13.00;10.50;;;;;;;;;;5043205;28;20198;-75
2021/09/06 03:56:34;;;;;;;13.63;10.83;;;;;;;;;;4993128;28;20193;-75
2021/09/06 03:59:38;;;;;;;14.23;11.30;;;;;;;;;;5014276;28;20199;-75
2021/09/06 04:02:44;;;;;;;14.67;10.47;;;;;;;;;;5034626;28;20235;-74
2021/09/06 04:05:50;;;;;;;12.33;10.13;;;;;;;;;;5029002;28;20689;-75
2021/09/06 04:08:55;;;;;;;13.60;10.70;;;;;;;;;;5058359;23;20242;-88
2021/09/06 04:12:01;;;;;;;12.97;11.00;;;;;;;;;;5032835;28;20207;-87
2021/09/06 04:15:08;;;;;;;15.03;10.90;;;;;;;;;;5043861;28;20191;-87
2021/09/06 04:18:16;;;;;;;13.77;10.87;;;;;;;;;;5055010;28;20239;-87
2021/09/06 04:21:20;;;;;;;14.57;11.53;;;;;;;;;;5015149;28;20247;-88
2021/09/06 04:24:27;;;;;;;15.63;10.67;;;;;;;;;;5009310;28;20200;-87
2021/09/06 04:27:33;;;;;;;15.40;11.00;;;;;;;;;;5032649;28;20231;-88
2021/09/06 04:30:38;;;;;;;11.97;10.20;;;;;;;;;;5032310;28;20188;-87
2021/09/06 04:33:43;;;;;;;12.63;10.17;;;;;;;;;;5035750;28;20203;-87
2021/09/06 04:36:48;;;;;;;14.77;10.87;;;;;;;;;;5013508;28;20204;-87
2021/09/06 04:39:53;;;;;;;17.23;10.70;;;;;;;;;;5004222;28;20185;-86
2021/09/06 04:42:57;;;;;;;13.00;10.60;;;;;;;;;;5043790;28;20207;-86
2021/09/06 04:46:02;;;;;;;13.93;11.23;;;;;;;;;;5019228;28;20212;-86
2021/09/06 04:49:07;;;;;;;13.70;10.67;;;;;;;;;;5034494;28;20216;-86
2021/09/06 04:52:12;;;;;;;15.90;11.57;;;;;;;;;;5012046;28;20674;-86
2021/09/06 04:55:17;;;;;;;17.77;12.00;;;;;;;;;;5011914;28;20211;-86
2021/09/06 04:58:22;;;;;;;15.00;10.93;;;;;;;;;;5011934;28;20610;-85
2021/09/06 05:01:27;;;;;;;15.70;11.73;;;;;;;;;;5035883;28;20203;-87
2021/09/06 05:04:32;;;;;;;15.27;11.63;;;;;;;;;;5036581;28;20200;-87
2021/09/06 05:07:37;;;;;;;17.73;11.33;;;;;;;;;;5022903;28;20223;-87
2021/09/06 05:10:43;;;;;;;15.70;11.30;;;;;;;;;;5034122;28;20192;-87
2021/09/06 05:13:48;;;;;;;15.80;11.13;;;;;;;;;;5011149;28;20279;-86
2021/09/06 05:16:53;;;;;;;19.43;11.77;;;;;;;;;;5011489;28;20191;-87
2021/09/06 05:19:57;;;;;;;17.17;11.87;;;;;;;;;;5020935;28;20224;-87
2021/09/06 05:23:01;;;;;;;15.73;11.90;;;;;;;;;;5011494;28;20187;-86
2021/09/06 05:26:05;;;;;;;17.43;12.10;;;;;;;;;;5011025;28;20192;-86
2021/09/06 05:29:09;;;;;;;15.90;11.57;;;;;;;;;;5010822;28;20219;-88
2021/09/06 05:32:13;;;;;;;15.73;12.37;;;;;;;;;;5033597;28;20205;-87
2021/09/06 05:35:19;;;;;;;16.83;11.83;;;;;;;;;;5013767;28;20681;-87
2021/09/06 05:38:25;;;;;;;17.87;11.50;;;;;;;;;;5002180;28;20248;-87
2021/09/06 05:41:48;;;;;;;14.90;11.40;;;;;;;;;;5013521;28;20211;-87
2021/09/06 05:44:57;;;;;;;18.70;11.30;;;;;;;;;;5012948;28;20185;-87
2021/09/06 05:48:01;;;;;;;16.40;11.77;;;;;;;;;;4991477;28;20228;-88
2021/09/06 05:51:05;;;;;;;18.20;12.33;;;;;;;;;;5006441;28;20690;-87
2021/09/06 05:54:28;;;;;;;24.00;12.43;;;;;;;;;;5044178;28;20555;-87
2021/09/06 05:57:33;;;;;;;20.20;12.30;;;;;;;;;;5030402;28;20215;-88
2021/09/06 06:00:37;;;;;;;26.83;13.93;;;;;;;;;;5002046;28;20670;-86
2021/09/06 06:03:42;;;;;;;23.80;13.27;;;;;;;;;;5038282;28;20259;-87
2021/09/06 06:06:51;;;;;;;23.67;15.03;;;;;;;;;;4991356;28;20220;-87
2021/09/06 06:09:56;;;;;;;30.23;16.73;;;;;;;;;;5037713;28;20199;-87
2021/09/06 06:13:00;;;;;;;25.00;16.17;;;;;;;;;;5017746;28;20195;-86
2021/09/06 06:16:05;;;;;;;20.07;15.77;;;;;;;;;;5025653;28;20554;-88
2021/09/06 06:19:12;;;;;;;21.77;15.73;;;;;;;;;;4992437;28;20229;-87
2021/09/06 06:22:38;;;;;;;24.83;15.70;;;;;;;;;;5020216;28;20196;-87
2021/09/06 06:26:00;;;;;;;20.37;14.10;;;;;;;;;;5032099;28;20212;-88
2021/09/06 06:29:05;;;;;;;21.20;15.40;;;;;;;;;;5010274;28;20223;-88
2021/09/06 06:32:10;;;;;;;16.97;14.03;;;;;;;;;;5020921;28;20202;-88
2021/09/06 06:35:15;;;;;;;20.03;13.87;;;;;;;;;;5022637;28;20195;-88
2021/09/06 06:38:19;;;;;;;28.07;17.07;;;;;;;;;;5010154;28;20611;-88
2021/09/06 06:41:31;;;;;;;22.67;16.13;;;;;;;;;;5033869;28;20203;-88
2021/09/06 06:44:42;;;;;;;20.30;15.60;;;;;;;;;;5013545;28;20200;-88
2021/09/06 06:47:46;;;;;;;19.47;14.80;;;;;;;;;;5040987;28;20218;-88
2021/09/06 06:50:51;;;;;;;22.00;14.23;;;;;;;;;;5025707;28;20191;-88
2021/09/06 06:53:55;;;;;;;19.17;13.63;;;;;;;;;;5022274;28;20204;-88
2021/09/06 06:57:06;;;;;;;19.13;14.33;;;;;;;;;;5032517;28;20193;-87
2021/09/06 07:00:11;;;;;;;18.87;12.63;;;;;;;;;;5012367;28;20211;-87
2021/09/06 07:03:19;;;;;;;32.00;14.30;;;;;;;;;;4990811;28;20197;-88
2021/09/06 07:06:25;;;;;;;25.93;13.23;;;;;;;;;;5013187;28;20232;-88
2021/09/06 07:09:31;;;;;;;13.60;12.13;;;;;;;;;;5036846;28;20191;-88
2021/09/06 07:12:36;;;;;;;18.83;12.10;;;;;;;;;;4997639;28;20188;-88
2021/09/06 07:15:41;;;;;;;20.50;12.40;;;;;;;;;;5010029;28;20188;-88
2021/09/06 07:18:48;;;;;;;18.57;13.47;;;;;;;;;;5025652;28;20294;-88
2021/09/06 07:21:52;;;;;;;15.97;11.77;;;;;;;;;;5018633;28;20208;-88
2021/09/06 07:24:56;;;;;;;18.17;12.03;;;;;;;;;;5025078;28;20216;-88
2021/09/06 07:28:01;;;;;;;15.97;11.83;;;;;;;;;;5041354;28;20764;-88
2021/09/06 07:31:08;;;;;;;12.80;10.67;;;;;;;;;;5025980;28;20200;-88
2021/09/06 07:34:12;;;;;;;17.90;11.10;;;;;;;;;;5013460;28;20192;-88
2021/09/06 07:37:16;;;;;;;15.43;11.90;;;;;;;;;;5031940;28;20222;-88
2021/09/06 07:40:21;;;;;;;14.63;10.70;;;;;;;;;;5030637;28;20215;-88
2021/09/06 07:43:27;;;;;;;14.57;11.50;;;;;;;;;;5033022;28;20547;-88
2021/09/06 07:46:32;;;;;;;15.53;11.50;;;;;;;;;;5032894;28;20191;-88
2021/09/06 07:49:39;;;;;;;18.17;10.93;;;;;;;;;;5036614;28;20200;-88
2021/09/06 07:52:43;;;;;;;13.37;10.90;;;;;;;;;;5013110;28;20188;-88
2021/09/06 07:55:51;;;;;;;15.07;11.10;;;;;;;;;;5014427;28;20184;-88
2021/09/06 07:58:59;;;;;;;13.97;10.57;;;;;;;;;;5044266;28;20579;-89
2021/09/06 08:02:03;;;;;;;15.43;11.07;;;;;;;;;;5025231;28;20183;-88
2021/09/06 08:05:09;;;;;;;16.53;10.90;;;;;;;;;;5032795;28;20183;-89
2021/09/06 08:08:14;;;;;;;16.97;10.80;;;;;;;;;;5023581;28;20236;-89
2021/09/06 08:11:19;;;;;;;16.40;10.73;;;;;;;;;;5026679;28;20670;-88
2021/09/06 08:14:26;;;;;;;19.20;10.37;;;;;;;;;;5011084;28;20560;-88
2021/09/06 08:17:33;;;;;;;12.03;9.50;;;;;;;;;;5031470;28;20238;-89
2021/09/06 08:20:39;;;;;;;12.93;9.40;;;;;;;;;;5018620;28;20208;-89
2021/09/06 08:23:43;;;;;;;14.80;9.80;;;;;;;;;;5021158;28;20551;-88
2021/09/06 08:26:47;;;;;;;12.67;9.80;;;;;;;;;;5025255;28;20548;-88
2021/09/06 08:29:52;;;;;;;12.13;10.17;;;;;;;;;;5012240;28;20177;-87
2021/09/06 08:32:56;;;;;;;16.13;9.03;;;;;;;;;;5027531;28;20199;-88
2021/09/06 08:36:00;;;;;;;13.70;9.13;;;;;;;;;;5018418;28;20678;-88
2021/09/06 08:39:06;;;;;;;14.33;8.63;;;;;;;;;;5035013;28;20225;-88
2021/09/06 08:42:11;;;;;;;14.93;8.93;;;;;;;;;;5032510;28;20188;-88
2021/09/06 08:45:15;;;;;;;10.70;8.27;;;;;;;;;;5023159;28;20517;-88
2021/09/06 08:48:22;;;;;;;15.63;8.73;;;;;;;;;;5047921;28;20227;-88
2021/09/06 08:51:27;;;;;;;12.37;8.40;;;;;;;;;;5022176;28;20184;-88
2021/09/06 08:54:33;;;;;;;11.33;8.20;;;;;;;;;;5043205;28;20185;-88
2021/09/06 08:57:38;;;;;;;10.73;7.90;;;;;;;;;;5011643;28;20232;-88
2021/09/06 09:00:47;;;;;;;10.63;7.87;;;;;;;;;;5033217;28;20216;-88
2021/09/06 09:04:20;;;;;;;11.30;8.00;;;;;;;;;;5035036;28;20201;-89
2021/09/06 09:07:44;;;;;;;9.27;6.90;;;;;;;;;;5022887;28;20236;-88
2021/09/06 09:11:18;;;;;;;9.52;6.88;;;;;;;;;;5002798;28;20174;-88
2021/09/06 09:14:51;;;;;;;11.07;7.13;;;;;;;;;;5015203;28;20532;-88
2021/09/06 09:18:09;;;;;;;9.23;6.85;;;;;;;;;;5053696;28;20212;-89
2021/09/06 09:21:23;;;;;;;11.55;6.80;;;;;;;;;;5032428;28;20180;-89
2021/09/06 09:24:37;;;;;;;8.95;6.93;;;;;;;;;;5031900;28;20199;-89
2021/09/06 09:28:03;;;;;;;13.02;8.02;;;;;;;;;;5018452;28;20221;-89
2021/09/06 09:31:25;;;;;;;12.82;7.80;;;;;;;;;;5033502;28;20178;-89
2021/09/06 09:34:43;;;;;;;15.15;7.10;;;;;;;;;;5035300;28;20193;-89
2021/09/06 09:38:08;;;;;;;11.65;7.10;;;;;;;;;;5023910;28;20222;-86
2021/09/06 09:41:15;;;;;;;9.68;6.75;;;;;;;;;;5010564;28;20236;-86
2021/09/06 09:44:25;;;;;;;9.43;6.60;;;;;;;;;;5047761;28;20187;-86
2021/09/06 09:48:01;;;;;;;9.13;6.18;;;;;;;;;;5021868;28;20226;-86
2021/09/06 09:51:06;;;;;;;11.60;6.68;;;;;;;;;;5036691;28;20196;-86
2021/09/06 09:54:11;;;;;;;7.40;6.60;;;;;;;;;;5002449;28;20627;-86
2021/09/06 09:57:16;;;;;;;9.68;6.65;;;;;;;;;;4991409;28;20187;-86
2021/09/06 10:00:21;;;;;;;29.17;9.00;;;;;;;;;;4991053;28;20301;-86
2021/09/06 10:03:28;;;;;;;7.50;6.00;;;;;;;;;;5013414;28;20195;-86
2021/09/06 10:06:32;;;;;;;16.25;6.10;;;;;;;;;;5013534;28;20178;-86
2021/09/06 10:09:42;;;;;;;14.00;6.55;;;;;;;;;;5045300;23;20232;-89
2021/09/06 10:12:48;;;;;;;10.95;6.82;;;;;;;;;;4990443;28;20196;-90
2021/09/06 10:16:01;;;;;;;7.15;6.45;;;;;;;;;;4991142;28;20213;-89
2021/09/06 10:19:09;;;;;;;10.48;5.93;;;;;;;;;;5005086;28;20226;-90
2021/09/06 10:22:22;;;;;;;7.63;6.88;;;;;;;;;;4982155;28;20645;-90
2021/09/06 10:25:30;;;;;;;8.13;6.40;;;;;;;;;;5008696;28;20194;-90
2021/09/06 10:28:35;;;;;;;8.30;6.63;;;;;;;;;;5003682;28;20229;-89
2021/09/06 10:31:39;;;;;;;38.90;7.93;;;;;;;;;;5013000;28;20201;-90
2021/09/06 10:34:45;;;;;;;18.90;7.65;;;;;;;;;;5020390;28;20198;-89
2021/09/06 10:38:13;;;;;;;7.90;6.50;;;;;;;;;;5009008;28;20201;-89
2021/09/06 10:41:23;;;;;;;7.65;6.85;;;;;;;;;;4997734;28;20214;-88
2021/09/06 10:44:35;;;;;;;8.02;6.68;;;;;;;;;;4994423;28;20186;-90
2021/09/06 10:47:42;;;;;;;8.40;6.35;;;;;;;;;;5001463;28;20652;-89
2021/09/06 10:50:47;;;;;;;8.30;6.50;;;;;;;;;;5014102;28;20174;-91
2021/09/06 10:53:55;;;;;;;7.38;6.68;;;;;;;;;;5016734;28;20193;-90
2021/09/06 10:56:59;;;;;;;9.77;7.03;;;;;;;;;;5005670;28;20182;-91
2021/09/06 11:00:04;;;;;;;7.93;6.28;;;;;;;;;;4997137;28;20558;-91
2021/09/06 11:03:09;;;;;;;7.65;6.85;;;;;;;;;;5015096;28;20189;-90
2021/09/06 11:06:14;;;;;;;7.63;6.25;;;;;;;;;;5005078;28;20194;-90
2021/09/06 11:09:26;;;;;;;9.30;6.95;;;;;;;;;;5027518;28;20229;-90
2021/09/06 11:12:30;;;;;;;7.75;6.95;;;;;;;;;;4993367;28;20660;-90
2021/09/06 11:15:35;;;;;;;7.22;5.95;;;;;;;;;;5027118;28;20205;-91
2021/09/06 11:18:42;;;;;;;8.65;7.22;;;;;;;;;;5015891;28;20221;-91
2021/09/06 11:21:46;;;;;;;8.82;6.18;;;;;;;;;;5004350;28;20213;-90
2021/09/06 11:24:57;;;;;;;24.35;8.32;;;;;;;;;;5016441;28;20633;-90
2021/09/06 11:28:06;;;;;;;8.65;6.43;;;;;;;;;;5016045;28;20220;-90
2021/09/06 11:31:16;;;;;;;8.27;6.45;;;;;;;;;;5016068;28;20208;-89
2021/09/06 11:34:24;;;;;;;9.00;6.45;;;;;;;;;;5005025;28;20197;-90
2021/09/06 11:37:29;;;;;;;6.80;6.10;;;;;;;;;;5004829;28;20197;-90
2021/09/06 11:40:34;;;;;;;6.30;5.68;;;;;;;;;;4993210;28;20209;-90
2021/09/06 11:43:41;;;;;;;14.13;6.32;;;;;;;;;;5014425;28;20525;-90
2021/09/06 11:46:45;;;;;;;8.25;6.97;;;;;;;;;;5004339;28;20203;-90
2021/09/06 11:49:59;;;;;;;21.25;7.95;;;;;;;;;;5002239;28;20213;-88
2021/09/06 11:53:06;;;;;;;6.47;5.78;;;;;;;;;;5003909;28;20201;-89
2021/09/06 11:56:14;;;;;;;6.88;6.18;;;;;;;;;;5015184;28;20193;-89
2021/09/06 11:59:27;;;;;;;7.15;5.82;;;;;;;;;;5004133;28;20219;-89
2021/09/06 12:02:31;;;;;;;8.57;6.22;;;;;;;;;;5003055;28;20196;-89
2021/09/06 12:05:39;;;;;;;7.95;6.40;;;;;;;;;;4996993;28;20193;-89
2021/09/06 12:08:56;;;;;;;6.88;6.00;;;;;;;;;;5007353;28;20573;-89
2021/09/06 12:12:00;;;;;;;8.80;5.75;;;;;;;;;;5026195;28;20190;-89
2021/09/06 12:15:13;;;;;;;9.23;5.97;;;;;;;;;;5004002;28;20521;-89
2021/09/06 12:18:18;;;;;;;13.15;6.43;;;;;;;;;;4997150;28;20574;-89
2021/09/06 12:21:24;;;;;;;11.40;6.57;;;;;;;;;;5019218;28;20210;-89
2021/09/06 12:24:28;;;;;;;8.75;6.18;;;;;;;;;;5007587;28;20207;-89
2021/09/06 12:27:35;;;;;;;7.47;5.72;;;;;;;;;;5022629;28;20201;-88
2021/09/06 12:30:41;;;;;;;9.45;5.80;;;;;;;;;;5015562;28;20178;-88
2021/09/06 12:33:46;;;;;;;7.70;5.57;;;;;;;;;;5016000;28;20640;-89
2021/09/06 12:36:53;;;;;;;5.72;5.18;;;;;;;;;;5004450;28;20534;-89
2021/09/06 12:39:58;;;;;;;8.85;5.57;;;;;;;;;;5015556;28;20225;-89
2021/09/06 12:43:03;;;;;;;6.65;5.35;;;;;;;;;;4994997;28;20187;-89
2021/09/06 12:46:08;;;;;;;6.35;5.70;;;;;;;;;;4980661;28;20533;-89
2021/09/06 12:49:12;;;;;;;27.60;7.07;;;;;;;;;;5016357;28;20553;-89
2021/09/06 12:52:16;;;;;;;5.63;5.03;;;;;;;;;;5016203;28;20648;-89
2021/09/06 12:55:22;;;;;;;6.10;5.50;;;;;;;;;;5004541;28;20204;-89
2021/09/06 12:58:28;;;;;;;7.82;5.75;;;;;;;;;;4997497;28;20223;-89
2021/09/06 13:01:35;;;;;;;10.27;5.40;;;;;;;;;;5015163;28;20210;-89
2021/09/06 13:04:41;;;;;;;6.18;5.20;;;;;;;;;;4995575;28;20657;-89
2021/09/06 13:07:46;;;;;;;8.80;5.50;;;;;;;;;;5033942;28;20200;-88
2021/09/06 13:10:51;;;;;;;7.07;5.75;;;;;;;;;;4973238;28;20210;-89
2021/09/06 13:13:56;;;;;;;6.97;5.60;;;;;;;;;;5025024;28;20557;-90
2021/09/06 13:17:46;;;;;;;6.30;5.55;;;;;;;;;;5000209;28;20185;-89
2021/09/06 13:20:50;;;;;;;13.85;6.47;;;;;;;;;;4983761;28;20178;-89
2021/09/06 13:23:56;;;;;;;7.32;5.65;;;;;;;;;;5006642;28;20179;-88
2021/09/06 13:27:00;;;;;;;7.90;5.97;;;;;;;;;;5014161;28;20193;-87
2021/09/06 13:30:10;;;;;;;8.57;5.97;;;;;;;;;;5002934;28;20565;-88
2021/09/06 13:33:16;;;;;;;8.48;5.43;;;;;;;;;;5013470;28;20191;-88
2021/09/06 13:36:20;;;;;;;7.00;5.90;;;;;;;;;;5024952;28;20628;-86
2021/09/06 13:39:24;;;;;;;6.35;5.30;;;;;;;;;;5014246;28;20219;-86
2021/09/06 13:42:28;;;;;;;7.43;4.97;;;;;;;;;;5025482;28;20185;-87
2021/09/06 13:45:32;;;;;;;8.90;5.68;;;;;;;;;;5014144;28;20191;-87
2021/09/06 13:48:36;;;;;;;7.07;5.50;;;;;;;;;;5014024;28;20224;-86
2021/09/06 13:51:40;;;;;;;6.35;5.32;;;;;;;;;;5025489;28;20216;-86
2021/09/06 13:54:44;;;;;;;16.73;5.80;;;;;;;;;;5024986;28;20205;-87
2021/09/06 13:57:49;;;;;;;7.00;5.75;;;;;;;;;;5036363;28;20201;-86
2021/09/06 14:00:53;;;;;;;9.98;6.18;;;;;;;;;;5002952;28;20180;-86
2021/09/06 14:03:58;;;;;;;7.85;6.03;;;;;;;;;;5025560;28;20192;-87
2021/09/06 14:07:02;;;;;;;6.60;5.68;;;;;;;;;;5002782;28;20631;-86
2021/09/06 14:10:07;;;;;;;7.63;6.10;;;;;;;;;;5012968;28;20208;-86
2021/09/06 14:13:11;;;;;;;5.90;5.30;;;;;;;;;;5001925;28;20192;-86
2021/09/06 14:16:15;;;;;;;7.40;5.50;;;;;;;;;;5013332;28;20188;-86
2021/09/06 14:19:19;;;;;;;6.85;6.15;;;;;;;;;;5014069;28;20563;-86
2021/09/06 14:22:23;;;;;;;7.85;6.10;;;;;;;;;;5036114;28;20176;-86
2021/09/06 14:25:28;;;;;;;6.30;5.32;;;;;;;;;;5003456;28;20192;-86
2021/09/06 14:28:32;;;;;;;10.65;5.70;;;;;;;;;;5028647;28;20223;-87
2021/09/06 14:31:36;;;;;;;7.63;6.35;;;;;;;;;;5017451;28;20213;-87
2021/09/06 14:34:42;;;;;;;10.38;6.07;;;;;;;;;;4994887;28;20187;-87
2021/09/06 14:37:47;;;;;;;6.90;5.25;;;;;;;;;;5017051;28;20197;-87
2021/09/06 14:40:51;;;;;;;7.88;5.80;;;;;;;;;;5017150;28;20181;-87
2021/09/06 14:43:55;;;;;;;8.10;5.80;;;;;;;;;;5017566;28;20188;-87
2021/09/06 14:47:00;;;;;;;9.52;5.72;;;;;;;;;;5017390;28;20184;-87
2021/09/06 14:50:05;;;;;;;12.63;6.15;;;;;;;;;;5016659;28;20213;-86
2021/09/06 14:53:09;;;;;;;6.03;5.40;;;;;;;;;;5016765;28;20194;-86
2021/09/06 14:56:14;;;;;;;6.30;5.35;;;;;;;;;;5017331;28;20207;-86
2021/09/06 14:59:18;;;;;;;22.80;7.68;;;;;;;;;;5017370;28;20227;-86
2021/09/06 15:02:24;;;;;;;8.10;5.63;;;;;;;;;;5017158;28;20182;-86
2021/09/06 15:05:28;;;;;;;18.95;6.38;;;;;;;;;;5005748;28;20188;-86
2021/09/06 15:08:32;;;;;;;7.97;6.22;;;;;;;;;;5016269;28;20706;-86
2021/09/06 15:11:37;;;;;;;8.57;5.80;;;;;;;;;;5027837;28;20209;-87
2021/09/06 15:14:42;;;;;;;6.97;5.55;;;;;;;;;;5039647;28;20181;-86
2021/09/06 15:17:46;;;;;;;6.78;5.30;;;;;;;;;;5017621;28;20184;-86
2021/09/06 15:20:50;;;;;;;7.55;5.93;;;;;;;;;;5006433;28;20204;-86
2021/09/06 15:23:54;;;;;;;11.93;6.00;;;;;;;;;;5004849;28;20205;-87
2021/09/06 15:26:58;;;;;;;9.35;5.95;;;;;;;;;;5016296;28;20212;-86
2021/09/06 15:30:12;;;;;;;7.60;5.47;;;;;;;;;;5006816;28;20218;-86
2021/09/06 15:33:17;;;;;;;9.88;5.68;;;;;;;;;;5017086;28;20654;-87
2021/09/06 15:36:22;;;;;;;10.75;6.10;;;;;;;;;;5005377;28;20205;-86
2021/09/06 15:39:27;;;;;;;12.10;5.43;;;;;;;;;;5028647;28;20217;-86
2021/09/06 15:42:34;;;;;;;7.50;5.50;;;;;;;;;;5016884;28;20173;-86
2021/09/06 15:45:38;;;;;;;9.20;6.05;;;;;;;;;;5005155;28;20678;-86
2021/09/06 15:48:43;;;;;;;8.93;5.47;;;;;;;;;;5017050;28;20223;-86
2021/09/06 15:51:47;;;;;;;7.27;5.33;;;;;;;;;;5028067;28;20209;-86
2021/09/06 15:54:51;;;;;;;9.13;5.33;;;;;;;;;;5028338;28;20188;-86
2021/09/06 15:57:56;;;;;;;8.20;5.63;;;;;;;;;;5016440;28;20226;-85
2021/09/06 16:01:00;;;;;;;8.10;6.00;;;;;;;;;;5016319;28;20183;-86
2021/09/06 16:04:04;;;;;;;8.63;5.63;;;;;;;;;;5027286;28;20184;-86
2021/09/06 16:07:08;;;;;;;14.20;5.73;;;;;;;;;;5015412;28;20192;-86
2021/09/06 16:10:12;;;;;;;7.60;5.73;;;;;;;;;;5016469;28;20204;-86
2021/09/06 16:13:16;;;;;;;13.97;6.40;;;;;;;;;;5003941;28;20193;-87
2021/09/06 16:16:21;;;;;;;10.73;5.77;;;;;;;;;;5026962;28;20179;-87
2021/09/06 16:19:25;;;;;;;7.40;5.60;;;;;;;;;;5015920;28;20217;-86
2021/09/06 16:22:29;;;;;;;10.50;6.13;;;;;;;;;;5005167;28;20644;-87
2021/09/06 16:25:33;;;;;;;7.93;5.60;;;;;;;;;;5005432;28;20200;-86
2021/09/06 16:28:38;;;;;;;9.30;5.50;;;;;;;;;;5004715;28;20221;-86
2021/09/06 16:31:42;;;;;;;15.50;6.37;;;;;;;;;;5015887;28;20226;-87
2021/09/06 16:34:46;;;;;;;11.60;5.60;;;;;;;;;;5014992;28;20185;-86
2021/09/06 16:37:50;;;;;;;8.37;6.07;;;;;;;;;;5027097;28;20200;-86
2021/09/06 16:40:54;;;;;;;8.97;5.73;;;;;;;;;;5015196;28;20542;-87
2021/09/06 16:43:59;;;;;;;8.70;5.97;;;;;;;;;;5010609;28;20201;-85
2021/09/06 16:47:03;;;;;;;16.63;6.97;;;;;;;;;;5020826;28;20182;-87
2021/09/06 16:50:07;;;;;;;14.03;6.13;;;;;;;;;;5013666;28;20189;-85
2021/09/06 16:53:13;;;;;;;18.67;7.20;;;;;;;;;;5001270;28;20229;-85
2021/09/06 16:56:17;;;;;;;12.43;6.43;;;;;;;;;;4990512;28;20173;-85
2021/09/06 16:59:21;;;;;;;18.03;7.73;;;;;;;;;;4990038;28;20209;-86
2021/09/06 17:02:25;;;;;;;16.53;7.37;;;;;;;;;;4990196;28;20181;-85
2021/09/06 17:05:30;;;;;;;12.80;7.20;;;;;;;;;;4988863;28;20201;-87
2021/09/06 17:08:34;;;;;;;15.43;7.50;;;;;;;;;;5002555;28;20228;-85
2021/09/06 17:11:38;;;;;;;38.30;9.03;;;;;;;;;;4999032;28;20220;-87
2021/09/06 17:14:42;;;;;;;40.27;7.80;;;;;;;;;;5007064;28;20201;-85
2021/09/06 17:17:47;;;;;;;14.50;7.50;;;;;;;;;;4999326;28;20648;-84
2021/09/06 17:20:50;;;;;;;15.23;6.97;;;;;;;;;;5010191;28;20197;-84
2021/09/06 17:23:54;;;;;;;11.40;6.83;;;;;;;;;;4998299;28;20201;-85
2021/09/06 17:26:59;;;;;;;13.23;6.87;;;;;;;;;;4996412;28;20493;-85
2021/09/06 17:30:04;;;;;;;14.80;7.87;;;;;;;;;;4999533;28;20217;-85
2021/09/06 17:33:08;;;;;;;9.03;7.30;;;;;;;;;;5020547;28;20225;-85
2021/09/06 17:36:12;;;;;;;9.07;6.77;;;;;;;;;;5010181;28;20529;-85
2021/09/06 17:39:16;;;;;;;17.40;7.20;;;;;;;;;;5009329;28;20995;-86
2021/09/06 17:42:21;;;;;;;11.30;6.90;;;;;;;;;;4986510;28;20193;-86
2021/09/06 17:45:27;;;;;;;9.83;7.27;;;;;;;;;;4998765;28;20204;-86
2021/09/06 17:48:31;;;;;;;10.53;7.00;;;;;;;;;;5009833;28;20684;-86
2021/09/06 17:51:36;;;;;;;16.97;6.00;;;;;;;;;;5020735;28;20197;-87
2021/09/06 17:54:42;;;;;;;28.23;6.83;;;;;;;;;;5011139;28;20189;-86
2021/09/06 17:57:47;;;;;;;12.43;6.80;;;;;;;;;;5006679;28;20198;-85
2021/09/06 18:00:53;;;;;;;17.70;6.90;;;;;;;;;;4984534;28;20192;-85
2021/09/06 18:03:57;;;;;;;13.83;6.43;;;;;;;;;;4998250;28;20189;-85
2021/09/06 18:07:02;;;;;;;8.60;6.77;;;;;;;;;;5021224;28;20201;-86
2021/09/06 18:10:07;;;;;;;16.37;7.67;;;;;;;;;;4997510;28;20580;-86
2021/09/06 18:13:11;;;;;;;8.77;7.03;;;;;;;;;;5020609;28;20216;-86
2021/09/06 18:16:16;;;;;;;7.73;6.60;;;;;;;;;;4998798;28;20178;-86
2021/09/06 18:19:28;;;;;;;12.97;6.70;;;;;;;;;;4987610;28;20224;-86
2021/09/06 18:22:33;;;;;;;9.80;6.37;;;;;;;;;;4998374;28;20644;-86
2021/09/06 18:25:38;;;;;;;8.47;7.13;;;;;;;;;;5020903;28;20803;-86